CTG2 weather

Montreal / St-Hubert Helicraft
Montréal, Quebec, Canada

Public forecast

Using degrees Celsius for public forecast. Weather courtesy of forecast.io.

Closest aviation weather report (METAR) to Montreal / St-Hubert Helicraft

Closest report is Montréal / Saint-Hubert Airport, 0.9 nm (1.7 km) SSW. Retrieved 2020/08/03 11:00 UTC (19 minutes ago):

CYHU 031100Z AUTO 21016G21KT 9SM OVC033 23/18 A2969 RMK SLP056 DENSITY ALT 1200FT

Closest aviation forecast (TAF) to Montreal / St-Hubert Helicraft

Closest forecast is Montréal / Saint-Hubert Airport, 0.9 nm (1.7 km) SSW. Retrieved 2020/08/03 06:42 UTC (5 hours ago):

TAF TAF CYHU 030538Z 0306/0406 17005KT P6SM SCT060 BECMG 0306/0308 21010KT FM030800 21012G22KT P6SM SCT015 OVC025 TEMPO 0308/0313 5SM -SHRA BR BKN015 OVC025 FM031300 22018G30KT P6SM SCT015 BKN025 FM031600 25015G25KT P6SM BKN030 FM032200 26012G22KT P6SM SCT030 BECMG 0322/0324 27008KT FM040400 03006KT P6SM SCT040 BKN140 RMK FCST BASED ON AUTO OBS NXT FCST BY 031200Z